createdAt,value
2018-02-10T00:02:14.212Z,-1.60
2018-02-10T00:04:43.203Z,-1.60
2018-02-10T00:07:12.184Z,-1.60
2018-02-10T00:09:41.183Z,-1.60
2018-02-10T00:12:10.906Z,-1.70
2018-02-10T00:14:40.641Z,-1.70
2018-02-10T00:17:09.647Z,-1.70
2018-02-10T00:19:38.631Z,-1.70
2018-02-10T00:22:07.593Z,-1.70
2018-02-10T00:24:36.544Z,-1.70
2018-02-10T00:27:05.603Z,-1.70
2018-02-10T00:29:34.628Z,-1.70
2018-02-10T00:32:03.922Z,-1.70
2018-02-10T00:34:33.277Z,-1.80
2018-02-10T00:37:02.297Z,-2.00
2018-02-10T00:39:31.443Z,-1.90
2018-02-10T00:42:00.380Z,-1.90
2018-02-10T00:44:29.389Z,-1.80
2018-02-10T00:46:59.134Z,-1.80
2018-02-10T00:49:28.861Z,-1.80
2018-02-10T00:51:58.240Z,-1.70
2018-02-10T00:54:27.979Z,-1.60
2018-02-10T00:56:56.969Z,-1.70
2018-02-10T00:59:25.919Z,-1.70
2018-02-10T01:01:54.880Z,-1.60
2018-02-10T01:04:23.886Z,-1.70
2018-02-10T01:06:52.863Z,-1.70
2018-02-10T01:09:22.006Z,-1.60
2018-02-10T01:11:51.723Z,-1.70
2018-02-10T01:14:21.477Z,-1.70
2018-02-10T01:16:50.459Z,-1.70
2018-02-10T01:19:19.443Z,-1.70
2018-02-10T01:21:48.415Z,-1.60
2018-02-10T01:24:18.169Z,-1.60
2018-02-10T01:26:47.573Z,-1.50
2018-02-10T01:29:16.561Z,-1.50
2018-02-10T01:31:45.564Z,-1.40
2018-02-10T01:34:14.965Z,-1.30
2018-02-10T01:36:43.935Z,-1.20
2018-02-10T01:39:12.906Z,-1.10
2018-02-10T01:41:41.915Z,-1.00
2018-02-10T01:44:11.287Z,-1.00
2018-02-10T01:46:41.058Z,-0.90
2018-02-10T01:49:10.034Z,-0.90
2018-02-10T01:51:39.201Z,-0.90
2018-02-10T01:54:08.172Z,-0.80
2018-02-10T01:56:37.662Z,-0.90
2018-02-10T01:59:08.200Z,-0.80
2018-02-10T02:01:37.601Z,-0.70
2018-02-10T02:04:06.593Z,-0.70
2018-02-10T02:06:35.625Z,-0.60
2018-02-10T02:09:04.602Z,-0.60
2018-02-10T02:11:33.816Z,-0.60
2018-02-10T02:14:02.809Z,-0.50
2018-02-10T02:16:31.770Z,-0.50
2018-02-10T02:19:01.549Z,-0.50
2018-02-10T02:21:30.963Z,-0.50
2018-02-10T02:23:59.942Z,-0.50
2018-02-10T02:26:29.708Z,-0.50
2018-02-10T02:28:58.694Z,-0.50
2018-02-10T02:31:28.244Z,-0.50
2018-02-10T02:33:57.317Z,-0.60
2018-02-10T02:36:27.041Z,-0.60
2018-02-10T02:38:56.478Z,-0.50
2018-02-10T02:41:25.500Z,-0.60
2018-02-10T02:43:54.443Z,-0.60
2018-02-10T02:46:23.846Z,-0.60
2018-02-10T02:48:53.604Z,-0.60
2018-02-10T02:51:23.360Z,-0.60
2018-02-10T02:53:52.361Z,-0.70
2018-02-10T02:56:22.827Z,-0.80
2018-02-10T02:58:51.797Z,-0.90
2018-02-10T03:01:21.528Z,-0.90
2018-02-10T03:03:50.540Z,-1.00
2018-02-10T03:06:19.587Z,-1.10
2018-02-10T03:08:48.548Z,-1.20
2018-02-10T03:11:18.304Z,-1.20
2018-02-10T03:13:48.063Z,-1.30
2018-02-10T03:16:17.183Z,-1.30
2018-02-10T03:18:46.161Z,-1.40
2018-02-10T03:21:15.171Z,-1.40
2018-02-10T03:23:45.894Z,-1.50
2018-02-10T03:26:14.852Z,-1.50
2018-02-10T03:28:43.849Z,-1.50
2018-02-10T03:31:12.846Z,-1.50
2018-02-10T03:33:41.941Z,-1.60
2018-02-10T03:36:10.911Z,-1.50
2018-02-10T03:38:39.900Z,-1.60
2018-02-10T03:41:08.935Z,-1.60
2018-02-10T03:43:38.004Z,-1.60
2018-02-10T03:46:07.008Z,-1.60
2018-02-10T03:48:36.001Z,-1.70
2018-02-10T03:51:04.987Z,-1.80
2018-02-10T03:53:33.966Z,-1.70
2018-02-10T03:56:02.943Z,-1.80
2018-02-10T03:58:32.340Z,-1.70
2018-02-10T04:01:02.076Z,-1.70
2018-02-10T04:03:31.072Z,-1.80
2018-02-10T04:06:00.091Z,-1.80
2018-02-10T04:08:29.461Z,-1.80
2018-02-10T04:10:58.418Z,-1.80
2018-02-10T04:13:27.796Z,-1.90
2018-02-10T04:15:57.000Z,-2.00
2018-02-10T04:18:27.512Z,-2.00
2018-02-10T04:20:56.488Z,-2.00
2018-02-10T04:23:25.459Z,-2.00
2018-02-10T04:25:54.471Z,-2.00
2018-02-10T04:28:23.507Z,-2.00
2018-02-10T04:30:54.021Z,-2.00
2018-02-10T04:33:22.992Z,-2.00
2018-02-10T04:35:51.985Z,-2.10
2018-02-10T04:38:20.977Z,-2.10
2018-02-10T04:40:49.969Z,-2.10
2018-02-10T04:43:18.973Z,-2.10
2018-02-10T04:45:47.949Z,-2.10
2018-02-10T04:48:16.923Z,-2.30
2018-02-10T04:50:45.933Z,-2.20
2018-02-10T04:53:15.219Z,-2.20
2018-02-10T04:55:44.189Z,-2.20
2018-02-10T04:58:13.925Z,-2.20
2018-02-10T05:00:42.922Z,-2.20
2018-02-10T05:03:12.032Z,-2.20
2018-02-10T05:05:41.029Z,-2.20
2018-02-10T05:08:10.390Z,-2.20
2018-02-10T05:10:39.400Z,-2.20
2018-02-10T05:13:08.393Z,-2.20
2018-02-10T05:15:37.786Z,-2.30
2018-02-10T05:18:06.788Z,-2.40
2018-02-10T05:20:35.792Z,-2.40
2018-02-10T05:23:05.150Z,-2.30
2018-02-10T05:25:34.522Z,-2.10
2018-02-10T05:28:03.511Z,-2.10
2018-02-10T05:30:33.988Z,-2.00
2018-02-10T05:33:03.168Z,-1.90
2018-02-10T05:35:34.425Z,-1.80
2018-02-10T05:38:04.189Z,-1.70
2018-02-10T05:40:33.948Z,-1.60
2018-02-10T05:43:02.916Z,-1.50
2018-02-10T05:45:32.344Z,-1.40
2018-02-10T05:48:01.349Z,-1.30
2018-02-10T05:50:31.098Z,-1.20
2018-02-10T05:53:00.085Z,-1.20
2018-02-10T05:55:29.096Z,-1.10
2018-02-10T05:57:58.818Z,-1.00
2018-02-10T06:00:27.992Z,-0.90
2018-02-10T06:02:57.720Z,-0.90
2018-02-10T06:05:26.741Z,-0.90
2018-02-10T06:07:56.518Z,-0.90
2018-02-10T06:10:25.545Z,-0.90
2018-02-10T06:12:54.508Z,-0.80
2018-02-10T06:15:23.507Z,-0.70
2018-02-10T06:17:53.342Z,-0.70
2018-02-10T06:20:22.362Z,-0.80
2018-02-10T06:22:51.344Z,-0.80
2018-02-10T06:25:20.344Z,-0.70
2018-02-10T06:27:49.325Z,-0.80
2018-02-10T06:30:18.427Z,-0.90
2018-02-10T06:32:47.897Z,-0.90
2018-02-10T06:35:17.698Z,-1.10
2018-02-10T06:37:46.699Z,-1.20
2018-02-10T06:40:16.523Z,-1.30
2018-02-10T06:42:46.221Z,-1.40
2018-02-10T06:45:15.169Z,-1.50
2018-02-10T06:47:44.566Z,-1.60
2018-02-10T06:50:14.420Z,-1.60
2018-02-10T06:52:43.828Z,-1.70
2018-02-10T06:55:13.569Z,-1.70
2018-02-10T06:57:42.578Z,-1.70
2018-02-10T07:00:11.631Z,-1.70
2018-02-10T07:02:40.570Z,-1.80
2018-02-10T07:05:09.668Z,-1.80
2018-02-10T07:07:38.711Z,-1.70
2018-02-10T07:10:10.303Z,-1.70
2018-02-10T07:12:41.994Z,-1.70
2018-02-10T07:15:13.149Z,-1.60
2018-02-10T07:17:43.785Z,-1.60
2018-02-10T07:20:13.463Z,-1.70
2018-02-10T07:22:42.448Z,-1.70
2018-02-10T07:25:11.620Z,-1.60
2018-02-10T07:27:40.568Z,-1.40
2018-02-10T07:30:10.410Z,-1.30
2018-02-10T07:32:41.248Z,-1.20
2018-02-10T07:35:10.514Z,-1.10
2018-02-10T07:37:39.530Z,-1.00
2018-02-10T07:40:08.625Z,-0.90
2018-02-10T07:42:37.754Z,-0.80
2018-02-10T07:45:07.184Z,-0.70
2018-02-10T07:47:36.148Z,-0.50
2018-02-10T07:50:05.356Z,-0.50
2018-02-10T07:52:34.737Z,-0.40
2018-02-10T07:55:05.466Z,-0.30
2018-02-10T07:57:35.412Z,-0.30
2018-02-10T08:00:04.476Z,-0.20
2018-02-10T08:02:33.981Z,-0.10
2018-02-10T08:05:07.054Z,0.00
2018-02-10T08:07:36.043Z,0.00
2018-02-10T08:10:05.089Z,0.00
2018-02-10T08:12:34.118Z,-0.10
2018-02-10T08:15:03.887Z,0.00
2018-02-10T08:17:33.676Z,0.00
2018-02-10T08:20:02.731Z,0.10
2018-02-10T08:22:32.511Z,0.10
2018-02-10T08:25:03.169Z,0.30
2018-02-10T08:27:32.793Z,0.30
2018-02-10T08:30:01.845Z,0.30
2018-02-10T08:32:30.845Z,0.40
2018-02-10T08:34:59.832Z,0.40
2018-02-10T08:37:28.891Z,0.40
2018-02-10T08:39:57.885Z,0.50
2018-02-10T08:42:26.908Z,0.40
2018-02-10T08:44:56.325Z,0.50
2018-02-10T08:47:25.312Z,0.60
2018-02-10T08:49:55.792Z,0.70
2018-02-10T08:52:24.801Z,0.60
2018-02-10T08:54:54.534Z,0.70
2018-02-10T08:57:25.054Z,0.80
2018-02-10T08:59:54.392Z,0.80
2018-02-10T09:02:24.477Z,0.90
2018-02-10T09:04:53.956Z,1.00
2018-02-10T09:07:23.339Z,1.10
2018-02-10T09:09:52.327Z,1.20
2018-02-10T09:12:22.998Z,1.00
2018-02-10T09:14:52.070Z,1.10
2018-02-10T09:17:21.231Z,1.20
2018-02-10T09:19:50.982Z,1.20
2018-02-10T09:22:21.147Z,1.30
2018-02-10T09:24:50.101Z,1.30
2018-02-10T09:27:19.071Z,1.40
2018-02-10T09:29:48.833Z,1.50
2018-02-10T09:32:17.801Z,1.60
2018-02-10T09:34:47.569Z,1.70
2018-02-10T09:37:17.475Z,1.90
2018-02-10T09:39:46.464Z,1.80
2018-02-10T09:42:15.527Z,1.80
2018-02-10T09:44:46.585Z,2.00
2018-02-10T09:47:15.658Z,2.10
2018-02-10T09:49:44.690Z,2.20
2018-02-10T09:52:14.558Z,2.20
2018-02-10T09:54:44.517Z,2.20
2018-02-10T09:57:14.078Z,2.20
2018-02-10T09:59:44.700Z,2.30
2018-02-10T10:02:13.843Z,2.40
2018-02-10T10:04:44.281Z,2.30
2018-02-10T10:07:14.155Z,2.30
2018-02-10T10:09:43.198Z,2.20
2018-02-10T10:12:12.220Z,2.30
2018-02-10T10:14:41.275Z,2.40
2018-02-10T10:17:10.304Z,2.50
2018-02-10T10:19:40.089Z,2.80
2018-02-10T10:22:09.145Z,2.90
2018-02-10T10:24:38.261Z,3.00
2018-02-10T10:27:07.486Z,3.00
2018-02-10T10:29:36.975Z,3.20
2018-02-10T10:32:06.368Z,3.20
2018-02-10T10:34:36.148Z,3.20
2018-02-10T10:37:05.152Z,3.20
2018-02-10T10:39:34.170Z,3.20
2018-02-10T10:42:03.920Z,3.10
2018-02-10T10:44:33.822Z,3.80
2018-02-10T10:47:02.822Z,2.90
2018-02-10T10:49:32.011Z,3.00
2018-02-10T10:52:01.485Z,3.00
2018-02-10T10:54:30.483Z,3.00
2018-02-10T10:56:59.478Z,3.10
2018-02-10T10:59:29.288Z,2.90
2018-02-10T11:01:58.415Z,2.80
2018-02-10T11:04:27.378Z,2.90
2018-02-10T11:06:56.743Z,2.90
2018-02-10T11:09:26.144Z,3.00
2018-02-10T11:11:55.135Z,3.00
2018-02-10T11:14:24.129Z,3.00
2018-02-10T11:16:53.455Z,3.00
2018-02-10T11:19:22.497Z,3.00
2018-02-10T11:21:51.488Z,2.80
2018-02-10T11:24:20.500Z,2.80
2018-02-10T11:26:49.507Z,2.60
2018-02-10T11:29:18.906Z,2.40
2018-02-10T11:31:48.286Z,2.30
2018-02-10T11:34:17.280Z,2.30
2018-02-10T11:36:47.090Z,2.10
2018-02-10T11:39:16.142Z,2.10
2018-02-10T11:41:45.885Z,2.10
2018-02-10T11:44:15.333Z,2.20
2018-02-10T11:46:45.111Z,2.30
2018-02-10T11:49:14.374Z,2.40
2018-02-10T11:51:44.713Z,2.50
2018-02-10T11:54:13.770Z,2.70
2018-02-10T11:56:43.492Z,3.00
2018-02-10T11:59:12.536Z,3.00
2018-02-10T12:01:41.660Z,3.20
2018-02-10T12:04:27.851Z,3.00
2018-02-10T12:06:56.825Z,3.10
2018-02-10T12:09:26.257Z,3.20
2018-02-10T12:11:56.069Z,3.00
2018-02-10T12:14:25.016Z,3.00
2018-02-10T12:16:54.531Z,2.90
2018-02-10T12:19:24.143Z,2.90
2018-02-10T12:21:53.212Z,2.80
2018-02-10T12:24:22.440Z,3.00
2018-02-10T12:26:51.471Z,3.00
2018-02-10T12:29:20.432Z,2.80
2018-02-10T12:31:49.426Z,2.90
2018-02-10T12:34:18.433Z,2.90
2018-02-10T12:36:48.315Z,3.10
2018-02-10T12:39:17.360Z,3.10
2018-02-10T12:41:46.650Z,3.20
2018-02-10T12:44:16.480Z,3.20
2018-02-10T12:46:46.256Z,3.20
2018-02-10T12:49:21.585Z,3.40
2018-02-10T12:51:50.612Z,3.10
2018-02-10T12:54:20.016Z,3.10
2018-02-10T12:56:49.017Z,3.10
2018-02-10T12:59:17.986Z,3.10
2018-02-10T13:01:47.788Z,3.10
2018-02-10T13:04:18.294Z,3.00
2018-02-10T13:06:47.281Z,2.80
2018-02-10T13:09:16.681Z,2.70
2018-02-10T13:11:46.446Z,2.80
2018-02-10T13:14:16.224Z,2.80
2018-02-10T13:16:45.231Z,2.70
2018-02-10T13:19:14.362Z,2.70
2018-02-10T13:21:43.339Z,2.80
2018-02-10T13:24:12.850Z,2.80
2018-02-10T13:26:41.890Z,2.80
2018-02-10T13:29:10.876Z,2.60
2018-02-10T13:31:39.915Z,2.70
2018-02-10T13:34:09.329Z,2.80
2018-02-10T13:36:38.443Z,2.90
2018-02-10T13:39:07.448Z,2.60
2018-02-10T13:41:36.465Z,2.50
2018-02-10T13:44:05.607Z,2.40
2018-02-10T13:46:34.659Z,2.30
2018-02-10T13:49:03.653Z,2.40
2018-02-10T13:51:33.697Z,2.60
2018-02-10T13:54:02.685Z,2.60
2018-02-10T13:56:32.369Z,2.60
2018-02-10T13:59:02.160Z,2.60
2018-02-10T14:01:31.191Z,2.60
2018-02-10T14:04:01.554Z,2.40
2018-02-10T14:06:30.598Z,2.40
2018-02-10T14:09:00.409Z,2.60
2018-02-10T14:11:29.474Z,2.60
2018-02-10T14:13:58.444Z,2.60
2018-02-10T14:16:27.505Z,2.80
2018-02-10T14:18:56.900Z,2.80
2018-02-10T14:21:25.863Z,2.70
2018-02-10T14:23:56.432Z,2.80
2018-02-10T14:26:25.371Z,2.70
2018-02-10T14:28:54.382Z,3.20
2018-02-10T14:31:24.938Z,4.70
2018-02-10T14:33:54.329Z,5.40
2018-02-10T14:36:23.289Z,5.50
2018-02-10T14:38:52.296Z,5.30
2018-02-10T14:41:21.345Z,4.90
2018-02-10T14:43:50.451Z,4.50
2018-02-10T14:46:19.892Z,4.10
2018-02-10T14:48:49.684Z,4.00
2018-02-10T14:51:19.534Z,3.70
2018-02-10T14:53:48.520Z,3.50
2018-02-10T14:56:18.321Z,3.10
2018-02-10T14:58:47.304Z,3.00
2018-02-10T15:01:16.289Z,2.90
2018-02-10T15:03:45.284Z,2.80
2018-02-10T15:06:14.680Z,2.80
2018-02-10T15:09:03.427Z,2.80
2018-02-10T15:11:32.486Z,2.70
2018-02-10T15:14:01.777Z,2.50
2018-02-10T15:16:30.797Z,2.50
2018-02-10T15:18:59.812Z,2.40
2018-02-10T15:21:29.721Z,2.40
2018-02-10T15:23:59.491Z,2.40
2018-02-10T15:26:29.276Z,2.60
2018-02-10T15:28:58.295Z,2.50
2018-02-10T15:31:38.952Z,2.50
2018-02-10T15:47:48.591Z,2.50
2018-02-10T15:50:17.986Z,2.60
2018-02-10T15:52:48.507Z,2.50
2018-02-10T15:55:22.227Z,2.40
2018-02-10T15:57:52.448Z,2.60
2018-02-10T16:00:36.718Z,2.60
2018-02-10T16:03:05.739Z,2.70
2018-02-10T16:05:35.604Z,2.70
2018-02-10T16:08:07.881Z,2.70
2018-02-10T16:10:37.654Z,2.60
2018-02-10T16:13:08.159Z,2.50
2018-02-10T16:15:38.810Z,2.60
2018-02-10T16:18:08.745Z,2.50
2018-02-10T16:20:38.534Z,2.60
2018-02-10T16:23:07.761Z,2.60
2018-02-10T16:25:36.777Z,2.60
2018-02-10T16:28:05.873Z,2.60
2018-02-10T16:30:38.120Z,2.40
2018-02-10T16:33:08.085Z,2.50
2018-02-10T16:35:37.046Z,2.40
2018-02-10T16:38:06.006Z,2.60
2018-02-10T16:40:35.386Z,2.50
2018-02-10T16:43:04.344Z,2.50
2018-02-10T16:45:34.046Z,2.50
2018-02-10T16:48:03.011Z,2.50
2018-02-10T16:50:32.741Z,2.50
2018-02-10T16:53:02.392Z,2.40
2018-02-10T16:55:31.789Z,2.40
2018-02-10T16:58:00.805Z,2.40
2018-02-10T17:00:30.014Z,2.40
2018-02-10T17:02:59.736Z,2.30
2018-02-10T17:05:29.135Z,2.30
2018-02-10T17:07:58.848Z,2.40
2018-02-10T17:10:28.579Z,2.50
2018-02-10T17:12:58.710Z,2.40
2018-02-10T17:15:27.677Z,2.80
2018-02-10T17:17:56.635Z,2.30
2018-02-10T17:20:25.672Z,2.30
2018-02-10T17:22:55.402Z,2.30
2018-02-10T17:25:24.442Z,2.20
2018-02-10T17:27:54.320Z,2.20
2018-02-10T17:30:24.413Z,2.20
2018-02-10T17:32:53.433Z,2.30
2018-02-10T17:35:22.397Z,2.30
2018-02-10T17:37:51.438Z,2.40
2018-02-10T17:40:21.983Z,2.40
2018-02-10T17:42:50.925Z,2.40
2018-02-10T17:45:20.347Z,2.40
2018-02-10T17:47:49.981Z,2.40
2018-02-10T17:50:19.001Z,2.30
2018-02-10T17:52:49.288Z,2.30
2018-02-10T17:55:18.545Z,2.30
2018-02-10T17:57:47.480Z,2.30
2018-02-10T18:00:16.503Z,2.30
2018-02-10T18:02:45.935Z,2.40
2018-02-10T18:05:14.983Z,2.30
2018-02-10T18:07:44.787Z,2.30
2018-02-10T18:10:13.835Z,2.40
2018-02-10T18:12:42.802Z,2.40
2018-02-10T18:15:11.782Z,2.40
2018-02-10T18:17:41.179Z,2.40
2018-02-10T18:20:10.570Z,2.70
2018-02-10T18:22:40.433Z,2.40
2018-02-10T18:25:09.407Z,2.40
2018-02-10T18:27:38.450Z,2.40
2018-02-10T18:30:08.271Z,2.30
2018-02-10T18:32:37.234Z,2.40
2018-02-10T18:35:06.287Z,2.40
2018-02-10T18:37:35.275Z,2.40
2018-02-10T18:40:04.795Z,2.40
2018-02-10T18:42:36.157Z,2.40
2018-02-10T18:45:05.942Z,2.40
2018-02-10T18:47:35.725Z,2.30
2018-02-10T18:50:04.723Z,2.40
2018-02-10T18:52:33.730Z,2.40
2018-02-10T18:55:03.476Z,2.40
2018-02-10T18:57:32.474Z,2.30
2018-02-10T19:00:01.469Z,2.40
2018-02-10T19:02:30.531Z,2.30
2018-02-10T19:05:00.323Z,2.40
2018-02-10T19:07:29.340Z,2.50
2018-02-10T19:09:58.295Z,2.40
2018-02-10T19:12:27.349Z,2.40
2018-02-10T19:14:56.806Z,2.40
2018-02-10T19:17:25.837Z,2.40
2018-02-10T19:19:55.260Z,2.40
2018-02-10T19:22:24.777Z,2.40
2018-02-10T19:24:53.744Z,2.40
2018-02-10T19:27:22.772Z,2.30
2018-02-10T19:29:52.580Z,2.30
2018-02-10T19:32:23.089Z,2.40
2018-02-10T19:34:52.504Z,2.30
2018-02-10T19:37:21.916Z,2.30
2018-02-10T19:39:50.961Z,2.20
2018-02-10T19:42:19.974Z,2.20
2018-02-10T19:44:49.165Z,2.10
2018-02-10T19:47:18.171Z,2.10
2018-02-10T19:49:47.717Z,2.20
2018-02-10T19:52:16.698Z,2.10
2018-02-10T19:54:45.700Z,2.10
2018-02-10T19:57:14.722Z,2.20
2018-02-10T19:59:43.700Z,2.30
2018-02-10T20:02:13.480Z,2.20
2018-02-10T20:04:42.491Z,2.10
2018-02-10T20:07:11.765Z,2.10
2018-02-10T20:09:41.561Z,2.20
2018-02-10T20:12:10.598Z,2.20
2018-02-10T20:14:39.944Z,2.30
2018-02-10T20:17:09.050Z,2.20
2018-02-10T20:19:39.379Z,2.30
2018-02-10T20:22:08.960Z,2.20
2018-02-10T20:24:39.851Z,2.20
2018-02-10T20:27:09.658Z,2.20
2018-02-10T20:29:38.837Z,2.20
2018-02-10T20:32:07.827Z,2.30
2018-02-10T20:34:37.573Z,2.30
2018-02-10T20:37:06.983Z,2.30
2018-02-10T20:39:36.745Z,2.20
2018-02-10T20:42:06.672Z,2.20
2018-02-10T20:44:35.698Z,2.20
2018-02-10T20:47:05.748Z,2.30
2018-02-10T20:49:34.780Z,2.20
2018-02-10T20:52:03.771Z,2.30
2018-02-10T20:54:33.538Z,2.30
2018-02-10T20:57:02.596Z,2.40
2018-02-10T20:59:31.615Z,2.40
2018-02-10T21:02:00.638Z,2.30
2018-02-10T21:04:29.618Z,2.40
2018-02-10T21:06:58.653Z,2.30
2018-02-10T21:09:27.651Z,2.40
2018-02-10T21:11:56.662Z,2.40
2018-02-10T21:14:25.712Z,2.40
2018-02-10T21:16:55.151Z,2.30
2018-02-10T21:19:24.122Z,2.30
2018-02-10T21:21:54.040Z,2.30
2018-02-10T21:24:23.067Z,2.30
2018-02-10T21:26:52.843Z,2.30
2018-02-10T21:29:22.650Z,2.30
2018-02-10T21:31:52.437Z,2.30
2018-02-10T21:36:56.992Z,2.20
2018-02-10T21:39:26.387Z,2.20
2018-02-10T21:41:56.319Z,2.10
2018-02-10T21:44:25.716Z,2.20
2018-02-10T21:46:54.773Z,2.20
2018-02-10T21:49:24.036Z,2.20
2018-02-10T21:51:53.946Z,2.30
2018-02-10T21:54:22.940Z,2.30
2018-02-10T21:56:52.696Z,2.30
2018-02-10T21:59:21.951Z,2.30
2018-02-10T22:01:50.943Z,2.40
2018-02-10T22:04:20.676Z,2.40
2018-02-10T22:06:49.678Z,2.30
2018-02-10T22:09:18.886Z,2.30
2018-02-10T22:11:49.026Z,2.30
2018-02-10T22:14:18.097Z,2.40
2018-02-10T22:16:47.085Z,2.40
2018-02-10T22:19:16.886Z,2.40
2018-02-10T22:21:45.864Z,2.50
2018-02-10T22:24:14.886Z,2.40
2018-02-10T22:26:43.861Z,2.40
2018-02-10T22:29:12.867Z,2.40
2018-02-10T22:31:41.868Z,2.40
2018-02-10T22:34:12.043Z,2.40
2018-02-10T22:36:41.453Z,2.40
2018-02-10T22:39:11.233Z,2.40
2018-02-10T22:41:41.195Z,2.40
2018-02-10T22:44:10.157Z,2.40
2018-02-10T22:46:39.461Z,2.50
2018-02-10T22:49:09.241Z,2.60
2018-02-10T22:51:38.322Z,2.60
2018-02-10T22:54:07.282Z,2.50
2018-02-10T22:56:36.280Z,2.50
2018-02-10T22:59:05.672Z,2.50
2018-02-10T23:01:34.720Z,2.40
2018-02-10T23:04:03.670Z,2.40
2018-02-10T23:06:32.677Z,2.50
2018-02-10T23:09:02.031Z,2.40
2018-02-10T23:11:31.026Z,2.40
2018-02-10T23:14:00.766Z,2.40
2018-02-10T23:16:29.727Z,2.40
2018-02-10T23:18:58.739Z,2.40
2018-02-10T23:21:27.732Z,2.40
2018-02-10T23:23:56.900Z,2.50
2018-02-10T23:26:25.869Z,2.60
2018-02-10T23:28:54.913Z,2.50
2018-02-10T23:31:24.705Z,2.50
2018-02-10T23:33:54.132Z,2.40
2018-02-10T23:36:23.107Z,2.40
2018-02-10T23:38:52.831Z,2.40
2018-02-10T23:41:21.853Z,2.50
2018-02-10T23:43:50.844Z,2.50
2018-02-10T23:46:19.884Z,2.40
2018-02-10T23:48:49.339Z,2.40
2018-02-10T23:51:19.426Z,2.50
2018-02-10T23:53:48.510Z,2.40
2018-02-10T23:56:17.541Z,2.40
2018-02-10T23:58:47.391Z,2.50
